sensor_id;sensor_type;location;lat;lon;timestamp;P1;durP1;ratioP1;P2;durP2;ratioP2
18532;SDS011;9396;51.510;11.934;2023-11-22T00:01:51;10.03;;;7.03;;
18532;SDS011;9396;51.510;11.934;2023-11-22T00:04:18;16.90;;;6.93;;
18532;SDS011;9396;51.510;11.934;2023-11-22T00:06:45;9.73;;;6.30;;
18532;SDS011;9396;51.510;11.934;2023-11-22T00:09:12;10.33;;;6.97;;
18532;SDS011;9396;51.510;11.934;2023-11-22T00:11:39;11.50;;;7.07;;
18532;SDS011;9396;51.510;11.934;2023-11-22T00:14:06;9.30;;;6.77;;
18532;SDS011;9396;51.510;11.934;2023-11-22T00:16:32;12.83;;;6.90;;
18532;SDS011;9396;51.510;11.934;2023-11-22T00:19:03;8.50;;;6.30;;
18532;SDS011;9396;51.510;11.934;2023-11-22T00:21:31;9.57;;;7.07;;
18532;SDS011;9396;51.510;11.934;2023-11-22T00:23:58;12.37;;;7.17;;
18532;SDS011;9396;51.510;11.934;2023-11-22T00:26:24;9.37;;;6.80;;
18532;SDS011;9396;51.510;11.934;2023-11-22T00:28:51;9.90;;;6.73;;
18532;SDS011;9396;51.510;11.934;2023-11-22T00:31:17;10.73;;;6.60;;
18532;SDS011;9396;51.510;11.934;2023-11-22T00:33:44;9.30;;;6.03;;
18532;SDS011;9396;51.510;11.934;2023-11-22T00:36:13;9.70;;;6.80;;
18532;SDS011;9396;51.510;11.934;2023-11-22T00:38:39;9.97;;;6.47;;
18532;SDS011;9396;51.510;11.934;2023-11-22T00:41:06;13.47;;;6.53;;
18532;SDS011;9396;51.510;11.934;2023-11-22T00:56:41;9.83;;;6.47;;
18532;SDS011;9396;51.510;11.934;2023-11-22T00:59:07;8.00;;;5.73;;
18532;SDS011;9396;51.510;11.934;2023-11-22T01:01:34;8.73;;;5.93;;
18532;SDS011;9396;51.510;11.934;2023-11-22T01:04:01;9.73;;;6.30;;
18532;SDS011;9396;51.510;11.934;2023-11-22T01:06:27;9.23;;;6.13;;
18532;SDS011;9396;51.510;11.934;2023-11-22T01:08:55;8.80;;;6.03;;
18532;SDS011;9396;51.510;11.934;2023-11-22T01:11:22;9.43;;;6.27;;
18532;SDS011;9396;51.510;11.934;2023-11-22T01:13:50;10.53;;;6.60;;
18532;SDS011;9396;51.510;11.934;2023-11-22T01:16:16;8.07;;;5.80;;
18532;SDS011;9396;51.510;11.934;2023-11-22T01:18:43;10.00;;;6.23;;
18532;SDS011;9396;51.510;11.934;2023-11-22T01:21:11;10.17;;;5.77;;
18532;SDS011;9396;51.510;11.934;2023-11-22T01:23:38;8.53;;;5.60;;
18532;SDS011;9396;51.510;11.934;2023-11-22T01:26:04;9.03;;;5.90;;
18532;SDS011;9396;51.510;11.934;2023-11-22T01:28:31;10.53;;;6.13;;
18532;SDS011;9396;51.510;11.934;2023-11-22T01:31:00;8.50;;;5.53;;
18532;SDS011;9396;51.510;11.934;2023-11-22T01:33:27;8.30;;;6.07;;
18532;SDS011;9396;51.510;11.934;2023-11-22T01:35:54;9.70;;;6.07;;
18532;SDS011;9396;51.510;11.934;2023-11-22T01:38:21;12.47;;;6.03;;
18532;SDS011;9396;51.510;11.934;2023-11-22T01:40:48;8.00;;;5.67;;
18532;SDS011;9396;51.510;11.934;2023-11-22T01:43:16;9.27;;;6.23;;
18532;SDS011;9396;51.510;11.934;2023-11-22T01:45:44;8.03;;;5.63;;
18532;SDS011;9396;51.510;11.934;2023-11-22T01:48:12;9.63;;;6.00;;
18532;SDS011;9396;51.510;11.934;2023-11-22T01:50:39;8.20;;;5.47;;
18532;SDS011;9396;51.510;11.934;2023-11-22T01:53:06;9.87;;;5.37;;
18532;SDS011;9396;51.510;11.934;2023-11-22T01:55:33;7.60;;;5.73;;
18532;SDS011;9396;51.510;11.934;2023-11-22T01:58:00;8.50;;;5.70;;
18532;SDS011;9396;51.510;11.934;2023-11-22T02:00:29;7.70;;;5.33;;
18532;SDS011;9396;51.510;11.934;2023-11-22T02:03:01;7.63;;;5.17;;
18532;SDS011;9396;51.510;11.934;2023-11-22T02:05:30;8.07;;;5.03;;
18532;SDS011;9396;51.510;11.934;2023-11-22T02:07:56;6.77;;;5.10;;
18532;SDS011;9396;51.510;11.934;2023-11-22T02:10:23;7.00;;;5.20;;
18532;SDS011;9396;51.510;11.934;2023-11-22T02:12:51;7.73;;;5.43;;
18532;SDS011;9396;51.510;11.934;2023-11-22T02:15:17;7.83;;;4.93;;
18532;SDS011;9396;51.510;11.934;2023-11-22T02:17:44;7.23;;;4.83;;
18532;SDS011;9396;51.510;11.934;2023-11-22T02:20:11;6.90;;;4.63;;
18532;SDS011;9396;51.510;11.934;2023-11-22T02:22:46;7.47;;;4.90;;
18532;SDS011;9396;51.510;11.934;2023-11-22T02:25:15;7.67;;;4.57;;
18532;SDS011;9396;51.510;11.934;2023-11-22T02:27:41;6.97;;;4.33;;
18532;SDS011;9396;51.510;11.934;2023-11-22T02:30:08;5.63;;;4.20;;
18532;SDS011;9396;51.510;11.934;2023-11-22T02:32:36;6.77;;;4.20;;
18532;SDS011;9396;51.510;11.934;2023-11-22T02:35:04;5.83;;;4.47;;
18532;SDS011;9396;51.510;11.934;2023-11-22T02:37:33;9.23;;;4.90;;
18532;SDS011;9396;51.510;11.934;2023-11-22T02:40:00;7.20;;;4.80;;
18532;SDS011;9396;51.510;11.934;2023-11-22T02:42:34;7.93;;;4.60;;
18532;SDS011;9396;51.510;11.934;2023-11-22T02:45:00;7.20;;;4.43;;
18532;SDS011;9396;51.510;11.934;2023-11-22T02:47:27;6.33;;;4.50;;
18532;SDS011;9396;51.510;11.934;2023-11-22T02:49:56;7.23;;;4.63;;
18532;SDS011;9396;51.510;11.934;2023-11-22T02:52:24;6.23;;;4.60;;
18532;SDS011;9396;51.510;11.934;2023-11-22T02:54:51;6.00;;;4.67;;
18532;SDS011;9396;51.510;11.934;2023-11-22T02:57:18;6.57;;;4.40;;
18532;SDS011;9396;51.510;11.934;2023-11-22T02:59:46;8.60;;;4.37;;
18532;SDS011;9396;51.510;11.934;2023-11-22T03:02:13;6.40;;;4.57;;
18532;SDS011;9396;51.510;11.934;2023-11-22T03:04:41;6.47;;;4.90;;
18532;SDS011;9396;51.510;11.934;2023-11-22T03:07:08;6.20;;;4.70;;
18532;SDS011;9396;51.510;11.934;2023-11-22T03:09:35;8.33;;;4.67;;
18532;SDS011;9396;51.510;11.934;2023-11-22T03:12:01;6.10;;;4.70;;
18532;SDS011;9396;51.510;11.934;2023-11-22T03:17:51;6.37;;;4.37;;
18532;SDS011;9396;51.510;11.934;2023-11-22T03:20:18;9.27;;;5.03;;
18532;SDS011;9396;51.510;11.934;2023-11-22T03:22:44;6.73;;;4.87;;
18532;SDS011;9396;51.510;11.934;2023-11-22T03:25:14;5.30;;;4.27;;
18532;SDS011;9396;51.510;11.934;2023-11-22T03:27:40;8.43;;;5.00;;
18532;SDS011;9396;51.510;11.934;2023-11-22T03:30:07;7.30;;;4.80;;
18532;SDS011;9396;51.510;11.934;2023-11-22T03:32:36;8.53;;;5.10;;
18532;SDS011;9396;51.510;11.934;2023-11-22T03:35:06;7.17;;;5.17;;
18532;SDS011;9396;51.510;11.934;2023-11-22T03:37:33;9.17;;;5.10;;
18532;SDS011;9396;51.510;11.934;2023-11-22T03:40:01;6.97;;;4.93;;
18532;SDS011;9396;51.510;11.934;2023-11-22T03:42:28;6.47;;;4.87;;
18532;SDS011;9396;51.510;11.934;2023-11-22T03:44:54;7.50;;;4.60;;
18532;SDS011;9396;51.510;11.934;2023-11-22T03:47:24;6.77;;;4.30;;
18532;SDS011;9396;51.510;11.934;2023-11-22T03:49:50;7.37;;;5.10;;
18532;SDS011;9396;51.510;11.934;2023-11-22T03:52:18;6.77;;;4.87;;
18532;SDS011;9396;51.510;11.934;2023-11-22T03:54:45;9.17;;;5.20;;
18532;SDS011;9396;51.510;11.934;2023-11-22T03:57:11;6.43;;;4.03;;
18532;SDS011;9396;51.510;11.934;2023-11-22T03:59:40;6.93;;;4.60;;
18532;SDS011;9396;51.510;11.934;2023-11-22T04:02:08;5.47;;;4.27;;
18532;SDS011;9396;51.510;11.934;2023-11-22T04:04:34;7.70;;;5.10;;
18532;SDS011;9396;51.510;11.934;2023-11-22T04:07:01;6.27;;;4.10;;
18532;SDS011;9396;51.510;11.934;2023-11-22T04:09:29;5.53;;;4.10;;
18532;SDS011;9396;51.510;11.934;2023-11-22T04:11:56;5.43;;;4.17;;
18532;SDS011;9396;51.510;11.934;2023-11-22T04:14:23;7.47;;;4.40;;
18532;SDS011;9396;51.510;11.934;2023-11-22T04:16:49;6.73;;;4.63;;
18532;SDS011;9396;51.510;11.934;2023-11-22T04:19:16;8.77;;;4.83;;
18532;SDS011;9396;51.510;11.934;2023-11-22T04:21:42;7.07;;;4.77;;
18532;SDS011;9396;51.510;11.934;2023-11-22T04:24:09;6.63;;;4.77;;
18532;SDS011;9396;51.510;11.934;2023-11-22T04:26:38;9.07;;;5.00;;
18532;SDS011;9396;51.510;11.934;2023-11-22T04:29:05;5.47;;;4.30;;
18532;SDS011;9396;51.510;11.934;2023-11-22T04:31:32;6.17;;;4.80;;
18532;SDS011;9396;51.510;11.934;2023-11-22T04:33:58;5.33;;;4.07;;
18532;SDS011;9396;51.510;11.934;2023-11-22T04:36:25;5.97;;;4.43;;
18532;SDS011;9396;51.510;11.934;2023-11-22T04:38:52;4.77;;;4.00;;
18532;SDS011;9396;51.510;11.934;2023-11-22T04:41:18;7.70;;;4.90;;
18532;SDS011;9396;51.510;11.934;2023-11-22T04:43:46;6.20;;;4.43;;
18532;SDS011;9396;51.510;11.934;2023-11-22T04:46:13;6.20;;;4.40;;
18532;SDS011;9396;51.510;11.934;2023-11-22T04:48:39;5.73;;;4.37;;
18532;SDS011;9396;51.510;11.934;2023-11-22T04:51:07;6.90;;;4.23;;
18532;SDS011;9396;51.510;11.934;2023-11-22T04:53:33;6.23;;;4.57;;
18532;SDS011;9396;51.510;11.934;2023-11-22T04:56:00;6.73;;;4.53;;
18532;SDS011;9396;51.510;11.934;2023-11-22T04:58:30;6.37;;;4.80;;
18532;SDS011;9396;51.510;11.934;2023-11-22T05:00:58;7.63;;;5.27;;
18532;SDS011;9396;51.510;11.934;2023-11-22T05:03:26;6.37;;;4.97;;
18532;SDS011;9396;51.510;11.934;2023-11-22T05:05:53;6.07;;;4.57;;
18532;SDS011;9396;51.510;11.934;2023-11-22T05:08:20;8.10;;;4.70;;
18532;SDS011;9396;51.510;11.934;2023-11-22T05:10:46;8.03;;;4.87;;
18532;SDS011;9396;51.510;11.934;2023-11-22T05:13:13;6.70;;;4.50;;
18532;SDS011;9396;51.510;11.934;2023-11-22T05:15:39;6.03;;;4.47;;
18532;SDS011;9396;51.510;11.934;2023-11-22T05:18:07;7.50;;;4.90;;
18532;SDS011;9396;51.510;11.934;2023-11-22T05:20:34;7.17;;;5.23;;
18532;SDS011;9396;51.510;11.934;2023-11-22T05:23:01;8.63;;;4.87;;
18532;SDS011;9396;51.510;11.934;2023-11-22T05:25:27;7.67;;;4.60;;
18532;SDS011;9396;51.510;11.934;2023-11-22T05:27:54;7.37;;;4.97;;
18532;SDS011;9396;51.510;11.934;2023-11-22T05:30:21;10.10;;;4.97;;
18532;SDS011;9396;51.510;11.934;2023-11-22T05:32:47;7.63;;;5.63;;
18532;SDS011;9396;51.510;11.934;2023-11-22T05:35:15;7.97;;;5.13;;
18532;SDS011;9396;51.510;11.934;2023-11-22T05:37:42;7.43;;;5.27;;
18532;SDS011;9396;51.510;11.934;2023-11-22T05:40:09;6.47;;;5.07;;
18532;SDS011;9396;51.510;11.934;2023-11-22T05:42:36;7.83;;;4.50;;
18532;SDS011;9396;51.510;11.934;2023-11-22T05:45:03;8.07;;;5.03;;
18532;SDS011;9396;51.510;11.934;2023-11-22T05:47:30;6.93;;;5.23;;
18532;SDS011;9396;51.510;11.934;2023-11-22T05:49:57;7.70;;;4.67;;
18532;SDS011;9396;51.510;11.934;2023-11-22T05:52:25;6.93;;;4.80;;
18532;SDS011;9396;51.510;11.934;2023-11-22T05:54:52;8.07;;;4.73;;
18532;SDS011;9396;51.510;11.934;2023-11-22T05:57:18;6.40;;;4.80;;
18532;SDS011;9396;51.510;11.934;2023-11-22T05:59:45;6.63;;;4.33;;
18532;SDS011;9396;51.510;11.934;2023-11-22T06:02:12;6.77;;;4.70;;
18532;SDS011;9396;51.510;11.934;2023-11-22T06:04:39;13.23;;;5.60;;
18532;SDS011;9396;51.510;11.934;2023-11-22T06:07:06;8.43;;;5.27;;
18532;SDS011;9396;51.510;11.934;2023-11-22T06:09:34;7.37;;;4.90;;
18532;SDS011;9396;51.510;11.934;2023-11-22T06:12:01;9.50;;;4.80;;
18532;SDS011;9396;51.510;11.934;2023-11-22T06:14:27;15.40;;;4.67;;
18532;SDS011;9396;51.510;11.934;2023-11-22T06:16:54;8.40;;;5.10;;
18532;SDS011;9396;51.510;11.934;2023-11-22T06:19:21;8.60;;;4.87;;
18532;SDS011;9396;51.510;11.934;2023-11-22T06:21:47;9.83;;;5.20;;
18532;SDS011;9396;51.510;11.934;2023-11-22T06:24:14;8.80;;;5.30;;
18532;SDS011;9396;51.510;11.934;2023-11-22T06:26:43;7.87;;;5.23;;
18532;SDS011;9396;51.510;11.934;2023-11-22T06:29:11;7.17;;;5.20;;
18532;SDS011;9396;51.510;11.934;2023-11-22T06:31:37;9.57;;;5.33;;
18532;SDS011;9396;51.510;11.934;2023-11-22T06:34:05;7.30;;;4.67;;
18532;SDS011;9396;51.510;11.934;2023-11-22T06:36:32;9.00;;;5.30;;
18532;SDS011;9396;51.510;11.934;2023-11-22T06:38:58;8.27;;;5.40;;
18532;SDS011;9396;51.510;11.934;2023-11-22T06:41:26;6.43;;;4.63;;
18532;SDS011;9396;51.510;11.934;2023-11-22T06:43:55;8.07;;;5.13;;
18532;SDS011;9396;51.510;11.934;2023-11-22T06:46:22;9.47;;;5.73;;
18532;SDS011;9396;51.510;11.934;2023-11-22T06:48:49;10.67;;;5.50;;
18532;SDS011;9396;51.510;11.934;2023-11-22T06:51:16;9.33;;;5.63;;
18532;SDS011;9396;51.510;11.934;2023-11-22T06:53:43;10.63;;;5.97;;
18532;SDS011;9396;51.510;11.934;2023-11-22T06:56:10;6.77;;;4.97;;
18532;SDS011;9396;51.510;11.934;2023-11-22T06:58:37;9.53;;;5.57;;
18532;SDS011;9396;51.510;11.934;2023-11-22T07:01:05;9.80;;;6.57;;
18532;SDS011;9396;51.510;11.934;2023-11-22T07:03:32;13.03;;;6.13;;
18532;SDS011;9396;51.510;11.934;2023-11-22T07:05:59;9.27;;;6.10;;
18532;SDS011;9396;51.510;11.934;2023-11-22T07:08:25;7.87;;;5.47;;
18532;SDS011;9396;51.510;11.934;2023-11-22T07:10:53;9.23;;;5.70;;
18532;SDS011;9396;51.510;11.934;2023-11-22T07:13:21;9.97;;;5.30;;
18532;SDS011;9396;51.510;11.934;2023-11-22T07:15:49;8.93;;;5.80;;
18532;SDS011;9396;51.510;11.934;2023-11-22T07:18:17;9.13;;;5.40;;
18532;SDS011;9396;51.510;11.934;2023-11-22T07:20:43;8.97;;;5.70;;
18532;SDS011;9396;51.510;11.934;2023-11-22T07:23:13;10.83;;;5.53;;
18532;SDS011;9396;51.510;11.934;2023-11-22T07:25:40;10.00;;;6.63;;
18532;SDS011;9396;51.510;11.934;2023-11-22T07:28:08;12.37;;;6.20;;
18532;SDS011;9396;51.510;11.934;2023-11-22T07:30:35;10.73;;;6.17;;
18532;SDS011;9396;51.510;11.934;2023-11-22T07:33:03;10.50;;;6.07;;
18532;SDS011;9396;51.510;11.934;2023-11-22T07:35:32;10.67;;;5.70;;
18532;SDS011;9396;51.510;11.934;2023-11-22T07:37:59;8.70;;;6.43;;
18532;SDS011;9396;51.510;11.934;2023-11-22T07:40:26;9.60;;;6.07;;
18532;SDS011;9396;51.510;11.934;2023-11-22T07:42:53;9.40;;;6.67;;
18532;SDS011;9396;51.510;11.934;2023-11-22T07:45:19;11.60;;;6.10;;
18532;SDS011;9396;51.510;11.934;2023-11-22T07:47:47;8.77;;;5.70;;
18532;SDS011;9396;51.510;11.934;2023-11-22T07:50:13;12.23;;;7.07;;
18532;SDS011;9396;51.510;11.934;2023-11-22T07:52:42;10.87;;;6.90;;
18532;SDS011;9396;51.510;11.934;2023-11-22T07:55:09;13.63;;;7.27;;
18532;SDS011;9396;51.510;11.934;2023-11-22T07:57:36;12.60;;;8.20;;
18532;SDS011;9396;51.510;11.934;2023-11-22T08:00:04;13.67;;;7.30;;
18532;SDS011;9396;51.510;11.934;2023-11-22T08:02:32;11.87;;;7.43;;
18532;SDS011;9396;51.510;11.934;2023-11-22T08:04:59;13.37;;;7.40;;
18532;SDS011;9396;51.510;11.934;2023-11-22T08:07:28;13.13;;;7.33;;
18532;SDS011;9396;51.510;11.934;2023-11-22T08:09:59;10.57;;;6.97;;
18532;SDS011;9396;51.510;11.934;2023-11-22T08:12:34;11.97;;;6.83;;
18532;SDS011;9396;51.510;11.934;2023-11-22T08:15:00;11.63;;;6.83;;
18532;SDS011;9396;51.510;11.934;2023-11-22T08:17:28;10.07;;;6.50;;
18532;SDS011;9396;51.510;11.934;2023-11-22T08:19:57;10.27;;;6.50;;
18532;SDS011;9396;51.510;11.934;2023-11-22T08:22:24;11.53;;;6.47;;
18532;SDS011;9396;51.510;11.934;2023-11-22T08:24:52;8.13;;;6.00;;
18532;SDS011;9396;51.510;11.934;2023-11-22T08:27:22;11.87;;;6.13;;
18532;SDS011;9396;51.510;11.934;2023-11-22T08:29:48;9.53;;;6.00;;
18532;SDS011;9396;51.510;11.934;2023-11-22T08:32:15;10.40;;;5.63;;
18532;SDS011;9396;51.510;11.934;2023-11-22T08:34:43;9.40;;;6.40;;
18532;SDS011;9396;51.510;11.934;2023-11-22T08:37:10;12.17;;;6.10;;
18532;SDS011;9396;51.510;11.934;2023-11-22T08:39:37;14.33;;;9.07;;
18532;SDS011;9396;51.510;11.934;2023-11-22T08:42:04;17.57;;;9.77;;
18532;SDS011;9396;51.510;11.934;2023-11-22T08:44:35;13.70;;;7.47;;
18532;SDS011;9396;51.510;11.934;2023-11-22T08:47:03;21.57;;;10.37;;
18532;SDS011;9396;51.510;11.934;2023-11-22T08:49:30;9.80;;;6.90;;
18532;SDS011;9396;51.510;11.934;2023-11-22T08:51:57;10.40;;;6.53;;
18532;SDS011;9396;51.510;11.934;2023-11-22T08:54:24;8.97;;;6.23;;
18532;SDS011;9396;51.510;11.934;2023-11-22T08:56:53;10.70;;;7.40;;
18532;SDS011;9396;51.510;11.934;2023-11-22T08:59:21;8.70;;;6.43;;
18532;SDS011;9396;51.510;11.934;2023-11-22T09:01:49;8.30;;;5.80;;
18532;SDS011;9396;51.510;11.934;2023-11-22T09:04:16;11.03;;;7.40;;
18532;SDS011;9396;51.510;11.934;2023-11-22T09:06:43;18.73;;;7.70;;
18532;SDS011;9396;51.510;11.934;2023-11-22T09:09:12;8.80;;;6.03;;
18532;SDS011;9396;51.510;11.934;2023-11-22T09:11:41;12.00;;;8.10;;
18532;SDS011;9396;51.510;11.934;2023-11-22T09:14:07;10.20;;;6.20;;
18532;SDS011;9396;51.510;11.934;2023-11-22T09:16:35;11.23;;;6.57;;
18532;SDS011;9396;51.510;11.934;2023-11-22T09:19:05;10.43;;;6.87;;
18532;SDS011;9396;51.510;11.934;2023-11-22T09:21:32;12.03;;;7.40;;
18532;SDS011;9396;51.510;11.934;2023-11-22T09:24:00;13.80;;;8.77;;
18532;SDS011;9396;51.510;11.934;2023-11-22T09:26:27;11.60;;;7.73;;
18532;SDS011;9396;51.510;11.934;2023-11-22T09:28:54;10.87;;;6.60;;
18532;SDS011;9396;51.510;11.934;2023-11-22T09:31:21;14.07;;;8.00;;
18532;SDS011;9396;51.510;11.934;2023-11-22T09:33:48;10.83;;;7.30;;
18532;SDS011;9396;51.510;11.934;2023-11-22T09:36:16;12.07;;;7.63;;
18532;SDS011;9396;51.510;11.934;2023-11-22T09:38:43;10.27;;;7.07;;
18532;SDS011;9396;51.510;11.934;2023-11-22T09:41:10;22.23;;;12.43;;
18532;SDS011;9396;51.510;11.934;2023-11-22T09:43:37;9.83;;;6.87;;
18532;SDS011;9396;51.510;11.934;2023-11-22T09:46:05;11.80;;;7.57;;
18532;SDS011;9396;51.510;11.934;2023-11-22T09:48:34;18.60;;;10.37;;
18532;SDS011;9396;51.510;11.934;2023-11-22T09:51:03;12.17;;;8.03;;
18532;SDS011;9396;51.510;11.934;2023-11-22T09:53:36;15.50;;;7.70;;
18532;SDS011;9396;51.510;11.934;2023-11-22T09:56:07;9.63;;;6.70;;
18532;SDS011;9396;51.510;11.934;2023-11-22T09:58:35;10.43;;;6.97;;
18532;SDS011;9396;51.510;11.934;2023-11-22T10:01:08;16.77;;;12.60;;
18532;SDS011;9396;51.510;11.934;2023-11-22T10:03:38;18.77;;;12.77;;
18532;SDS011;9396;51.510;11.934;2023-11-22T10:06:05;14.30;;;9.40;;
18532;SDS011;9396;51.510;11.934;2023-11-22T10:08:33;11.43;;;7.20;;
18532;SDS011;9396;51.510;11.934;2023-11-22T10:11:03;12.77;;;7.63;;
18532;SDS011;9396;51.510;11.934;2023-11-22T10:13:30;13.73;;;8.23;;
18532;SDS011;9396;51.510;11.934;2023-11-22T10:15:57;12.43;;;8.47;;
18532;SDS011;9396;51.510;11.934;2023-11-22T10:18:38;8.13;;;6.13;;
18532;SDS011;9396;51.510;11.934;2023-11-22T10:21:15;10.60;;;6.97;;
18532;SDS011;9396;51.510;11.934;2023-11-22T10:23:47;14.80;;;7.40;;
18532;SDS011;9396;51.510;11.934;2023-11-22T10:26:13;12.93;;;8.17;;
18532;SDS011;9396;51.510;11.934;2023-11-22T10:28:41;11.83;;;7.70;;
18532;SDS011;9396;51.510;11.934;2023-11-22T10:31:09;12.73;;;7.33;;
18532;SDS011;9396;51.510;11.934;2023-11-22T10:33:38;11.23;;;7.30;;
18532;SDS011;9396;51.510;11.934;2023-11-22T10:36:05;11.43;;;7.50;;
18532;SDS011;9396;51.510;11.934;2023-11-22T10:38:33;12.63;;;7.73;;
18532;SDS011;9396;51.510;11.934;2023-11-22T10:41:04;11.43;;;7.80;;
18532;SDS011;9396;51.510;11.934;2023-11-22T10:43:32;10.73;;;7.93;;
18532;SDS011;9396;51.510;11.934;2023-11-22T10:46:01;11.53;;;7.43;;
18532;SDS011;9396;51.510;11.934;2023-11-22T10:48:29;11.77;;;8.27;;
18532;SDS011;9396;51.510;11.934;2023-11-22T10:50:58;14.50;;;8.97;;
18532;SDS011;9396;51.510;11.934;2023-11-22T10:53:30;14.90;;;9.10;;
18532;SDS011;9396;51.510;11.934;2023-11-22T10:56:02;12.17;;;8.23;;
18532;SDS011;9396;51.510;11.934;2023-11-22T10:58:37;13.83;;;8.27;;
18532;SDS011;9396;51.510;11.934;2023-11-22T11:01:12;10.70;;;7.50;;
18532;SDS011;9396;51.510;11.934;2023-11-22T11:03:41;13.43;;;8.57;;
18532;SDS011;9396;51.510;11.934;2023-11-22T11:06:14;14.10;;;9.43;;
18532;SDS011;9396;51.510;11.934;2023-11-22T11:08:46;14.00;;;8.63;;
18532;SDS011;9396;51.510;11.934;2023-11-22T11:11:15;12.70;;;8.13;;
18532;SDS011;9396;51.510;11.934;2023-11-22T11:13:43;14.30;;;9.83;;
18532;SDS011;9396;51.510;11.934;2023-11-22T11:16:11;14.10;;;8.83;;
18532;SDS011;9396;51.510;11.934;2023-11-22T11:18:38;12.77;;;8.77;;
18532;SDS011;9396;51.510;11.934;2023-11-22T11:21:07;11.93;;;7.93;;
18532;SDS011;9396;51.510;11.934;2023-11-22T11:23:37;14.43;;;7.83;;
18532;SDS011;9396;51.510;11.934;2023-11-22T11:26:09;15.67;;;9.67;;
18532;SDS011;9396;51.510;11.934;2023-11-22T11:28:43;11.63;;;8.10;;
18532;SDS011;9396;51.510;11.934;2023-11-22T11:31:11;14.73;;;9.13;;
18532;SDS011;9396;51.510;11.934;2023-11-22T11:33:52;23.30;;;13.23;;
18532;SDS011;9396;51.510;11.934;2023-11-22T11:36:21;14.20;;;8.60;;
18532;SDS011;9396;51.510;11.934;2023-11-22T11:38:49;11.40;;;8.37;;
18532;SDS011;9396;51.510;11.934;2023-11-22T11:41:17;11.57;;;7.93;;
18532;SDS011;9396;51.510;11.934;2023-11-22T11:43:45;12.37;;;8.10;;
18532;SDS011;9396;51.510;11.934;2023-11-22T11:46:13;15.77;;;9.23;;
18532;SDS011;9396;51.510;11.934;2023-11-22T11:48:44;13.23;;;9.50;;
18532;SDS011;9396;51.510;11.934;2023-11-22T11:51:14;14.17;;;9.13;;
18532;SDS011;9396;51.510;11.934;2023-11-22T11:53:41;11.83;;;8.20;;
18532;SDS011;9396;51.510;11.934;2023-11-22T11:56:08;11.87;;;8.40;;
18532;SDS011;9396;51.510;11.934;2023-11-22T11:58:36;13.17;;;8.20;;
18532;SDS011;9396;51.510;11.934;2023-11-22T12:01:05;13.60;;;8.30;;
18532;SDS011;9396;51.510;11.934;2023-11-22T12:03:32;11.33;;;8.30;;
18532;SDS011;9396;51.510;11.934;2023-11-22T12:05:59;10.93;;;7.23;;
18532;SDS011;9396;51.510;11.934;2023-11-22T12:08:25;12.50;;;8.10;;
18532;SDS011;9396;51.510;11.934;2023-11-22T12:10:55;13.10;;;8.20;;
18532;SDS011;9396;51.510;11.934;2023-11-22T12:13:24;12.23;;;8.03;;
18532;SDS011;9396;51.510;11.934;2023-11-22T12:15:51;13.53;;;8.23;;
18532;SDS011;9396;51.510;11.934;2023-11-22T12:18:20;12.40;;;8.47;;
18532;SDS011;9396;51.510;11.934;2023-11-22T12:20:53;13.87;;;8.87;;
18532;SDS011;9396;51.510;11.934;2023-11-22T12:23:21;12.03;;;8.70;;
18532;SDS011;9396;51.510;11.934;2023-11-22T12:25:48;15.47;;;8.60;;
18532;SDS011;9396;51.510;11.934;2023-11-22T12:28:16;11.00;;;7.83;;
18532;SDS011;9396;51.510;11.934;2023-11-22T12:30:42;12.70;;;8.57;;
18532;SDS011;9396;51.510;11.934;2023-11-22T12:33:10;14.67;;;8.77;;
18532;SDS011;9396;51.510;11.934;2023-11-22T12:35:39;12.30;;;8.33;;
18532;SDS011;9396;51.510;11.934;2023-11-22T12:38:06;13.77;;;9.00;;
18532;SDS011;9396;51.510;11.934;2023-11-22T12:40:33;12.67;;;8.67;;
18532;SDS011;9396;51.510;11.934;2023-11-22T12:43:00;14.07;;;9.60;;
18532;SDS011;9396;51.510;11.934;2023-11-22T12:45:28;19.10;;;9.10;;
18532;SDS011;9396;51.510;11.934;2023-11-22T12:47:59;16.17;;;9.40;;
18532;SDS011;9396;51.510;11.934;2023-11-22T12:50:29;16.00;;;9.67;;
18532;SDS011;9396;51.510;11.934;2023-11-22T12:52:56;14.93;;;9.77;;
18532;SDS011;9396;51.510;11.934;2023-11-22T12:55:23;14.50;;;9.50;;
18532;SDS011;9396;51.510;11.934;2023-11-22T12:57:55;14.60;;;9.50;;
18532;SDS011;9396;51.510;11.934;2023-11-22T13:00:23;13.20;;;9.70;;
18532;SDS011;9396;51.510;11.934;2023-11-22T13:02:50;13.57;;;8.93;;
18532;SDS011;9396;51.510;11.934;2023-11-22T13:05:17;15.27;;;9.90;;
18532;SDS011;9396;51.510;11.934;2023-11-22T13:07:44;13.10;;;9.57;;
18532;SDS011;9396;51.510;11.934;2023-11-22T13:10:12;15.17;;;10.10;;
18532;SDS011;9396;51.510;11.934;2023-11-22T13:12:41;13.53;;;9.40;;
18532;SDS011;9396;51.510;11.934;2023-11-22T13:15:09;19.67;;;10.83;;
18532;SDS011;9396;51.510;11.934;2023-11-22T13:17:36;15.17;;;9.53;;
18532;SDS011;9396;51.510;11.934;2023-11-22T13:20:05;16.93;;;9.60;;
18532;SDS011;9396;51.510;11.934;2023-11-22T13:22:38;12.80;;;9.87;;
18532;SDS011;9396;51.510;11.934;2023-11-22T13:25:05;16.27;;;10.10;;
18532;SDS011;9396;51.510;11.934;2023-11-22T13:27:33;17.30;;;10.30;;
18532;SDS011;9396;51.510;11.934;2023-11-22T13:30:01;11.50;;;8.73;;
18532;SDS011;9396;51.510;11.934;2023-11-22T13:32:29;16.43;;;9.27;;
18532;SDS011;9396;51.510;11.934;2023-11-22T13:34:56;14.53;;;9.47;;
18532;SDS011;9396;51.510;11.934;2023-11-22T13:37:23;14.10;;;9.60;;
18532;SDS011;9396;51.510;11.934;2023-11-22T13:39:49;13.40;;;10.17;;
18532;SDS011;9396;51.510;11.934;2023-11-22T13:42:17;12.67;;;9.60;;
18532;SDS011;9396;51.510;11.934;2023-11-22T13:44:45;14.77;;;9.93;;
18532;SDS011;9396;51.510;11.934;2023-11-22T13:47:12;14.47;;;9.63;;
18532;SDS011;9396;51.510;11.934;2023-11-22T13:49:39;14.87;;;10.00;;
18532;SDS011;9396;51.510;11.934;2023-11-22T13:52:07;21.53;;;9.87;;
18532;SDS011;9396;51.510;11.934;2023-11-22T13:54:34;15.80;;;10.50;;
18532;SDS011;9396;51.510;11.934;2023-11-22T13:57:04;16.23;;;9.87;;
18532;SDS011;9396;51.510;11.934;2023-11-22T13:59:31;13.53;;;9.90;;
18532;SDS011;9396;51.510;11.934;2023-11-22T14:01:59;17.40;;;10.87;;
18532;SDS011;9396;51.510;11.934;2023-11-22T14:04:26;16.27;;;10.83;;
18532;SDS011;9396;51.510;11.934;2023-11-22T14:06:52;15.30;;;10.07;;
18532;SDS011;9396;51.510;11.934;2023-11-22T14:09:19;14.27;;;9.63;;
18532;SDS011;9396;51.510;11.934;2023-11-22T14:11:45;13.97;;;10.53;;
18532;SDS011;9396;51.510;11.934;2023-11-22T14:14:12;15.53;;;10.73;;
18532;SDS011;9396;51.510;11.934;2023-11-22T14:16:39;16.60;;;11.03;;
18532;SDS011;9396;51.510;11.934;2023-11-22T14:19:11;16.50;;;10.50;;
18532;SDS011;9396;51.510;11.934;2023-11-22T14:21:38;16.87;;;10.63;;
18532;SDS011;9396;51.510;11.934;2023-11-22T14:24:05;18.03;;;11.30;;
18532;SDS011;9396;51.510;11.934;2023-11-22T14:26:33;16.90;;;10.57;;
18532;SDS011;9396;51.510;11.934;2023-11-22T14:29:00;17.67;;;10.03;;
18532;SDS011;9396;51.510;11.934;2023-11-22T14:31:27;14.13;;;9.83;;
18532;SDS011;9396;51.510;11.934;2023-11-22T14:33:54;13.43;;;9.00;;
18532;SDS011;9396;51.510;11.934;2023-11-22T14:36:23;16.00;;;9.67;;
18532;SDS011;9396;51.510;11.934;2023-11-22T14:38:51;15.07;;;10.07;;
18532;SDS011;9396;51.510;11.934;2023-11-22T14:41:21;13.97;;;9.73;;
18532;SDS011;9396;51.510;11.934;2023-11-22T14:43:48;12.97;;;9.13;;
18532;SDS011;9396;51.510;11.934;2023-11-22T14:46:15;13.33;;;9.70;;
18532;SDS011;9396;51.510;11.934;2023-11-22T14:48:42;11.87;;;8.77;;
18532;SDS011;9396;51.510;11.934;2023-11-22T14:51:11;14.00;;;9.40;;
18532;SDS011;9396;51.510;11.934;2023-11-22T14:53:41;13.20;;;9.33;;
18532;SDS011;9396;51.510;11.934;2023-11-22T14:56:09;10.60;;;8.13;;
18532;SDS011;9396;51.510;11.934;2023-11-22T14:58:36;15.17;;;9.37;;
18532;SDS011;9396;51.510;11.934;2023-11-22T15:01:03;13.30;;;8.67;;